Terminal Aerodrome Forecast
Issued by NWS Pueblo, CO

Home | Current Version | Previous Version | Text Only | Print | Product List | Glossary On
Versions: 1 2 3 4 5 6 7 8 9 10 11 12 13 14 15 16 17 18 19 20 21 22 23 24 25 26 27 28 29 30 31 32 33 34 35 36 37 38 39 40 41 42
968
FTUS45 KPUB 241133
TAFCOS
TAF
KCOS 241133Z 2412/2512 30008KT P6SM SCT110 BKN150
     FM241500 36014KT P6SM SCT080 BKN140
     FM241800 36015G25KT P6SM VCSH SCT040 SCT080 BKN140
     FM242100 36014G24KT P6SM VCSH SCT030 BKN050 PROB30 2423/2503
      3SM -SHSN BKN025
     FM250400 36012KT P6SM SCT035 SCT140=

USA.gov is the U.S. government's official web portal to all federal, state and local government web resources and services.